Time;durP1;ratioP1;P1;durP2;ratioP2;P2;SDS_P1;SDS_P2;PMS_P1;PMS_P2;Temp;Humidity;BMP_temperature;BMP_pressure;BME280_temperature;BME280_humidity;BME280_pressure;Samples;Min_cycle;Max_cycle;Signal;HPM_P1;HPM_P2
2021/06/11 00:01:17;;;;;;;12.07;9.77;;;;;;;17.14;100.00;99642.77;1722731;82;20845;-68
2021/06/11 00:03:44;;;;;;;12.77;10.43;;;;;;;17.05;100.00;99638.95;1725489;82;21580;-63
2021/06/11 00:06:11;;;;;;;14.50;11.50;;;;;;;17.17;100.00;99646.24;1729017;82;21011;-71
2021/06/11 00:08:39;;;;;;;11.70;9.33;;;;;;;17.20;100.00;99645.77;1729679;82;20999;-71
2021/06/11 00:11:05;;;;;;;14.20;10.30;;;;;;;17.10;100.00;99643.49;1729397;82;20924;-71
2021/06/11 00:13:32;;;;;;;12.67;10.10;;;;;;;17.10;100.00;99643.49;1728854;82;20935;-64
2021/06/11 00:16:00;;;;;;;13.27;11.00;;;;;;;17.10;100.00;99648.23;1728839;82;21096;-72
2021/06/11 00:18:27;;;;;;;12.93;9.13;;;;;;;17.23;100.00;99650.52;1729165;82;21066;-69
2021/06/11 00:20:55;;;;;;;10.70;8.30;;;;;;;17.24;100.00;99641.61;1729470;82;21022;-69
2021/06/11 00:23:23;;;;;;;11.17;8.13;;;;;;;17.21;100.00;99648.67;1718849;82;20955;-62
2021/06/11 00:25:51;;;;;;;10.33;7.33;;;;;;;17.16;100.00;99638.56;1728837;82;21051;-69
2021/06/11 00:28:18;;;;;;;9.93;7.23;;;;;;;17.32;100.00;99643.56;1729262;82;21191;-69
2021/06/11 00:30:44;;;;;;;10.27;7.33;;;;;;;17.23;100.00;99646.58;1729583;82;20962;-71
2021/06/11 00:33:11;;;;;;;8.20;6.80;;;;;;;17.18;100.00;99648.35;1729637;82;20979;-65
2021/06/11 00:35:38;;;;;;;8.90;6.40;;;;;;;17.09;100.00;99646.65;1727523;82;21082;-69
2021/06/11 00:38:05;;;;;;;10.57;6.57;;;;;;;17.10;100.00;99653.50;1754286;80;21090;-72
2021/06/11 00:40:31;;;;;;;9.13;7.00;;;;;;;17.05;100.00;99656.56;1754996;80;21147;-73
2021/06/11 00:42:58;;;;;;;10.83;7.40;;;;;;;17.04;100.00;99645.23;1757020;80;20932;-71
2021/06/11 00:45:25;;;;;;;8.37;7.03;;;;;;;17.06;100.00;99644.49;1757083;80;21002;-64
2021/06/11 00:47:52;;;;;;;7.47;6.30;;;;;;;17.04;100.00;99646.55;1728597;82;20999;-64
2021/06/11 00:50:26;;;;;;;7.87;6.60;;;;;;;17.07;100.00;99646.08;1729399;82;21086;-72
2021/06/11 00:52:55;;;;;;;9.23;6.23;;;;;;;17.03;100.00;99646.28;1720864;82;21137;-69
2021/06/11 00:55:22;;;;;;;8.43;6.23;;;;;;;17.06;100.00;99648.97;1728534;82;21007;-70
2021/06/11 00:57:49;;;;;;;7.83;7.03;;;;;;;17.09;100.00;99655.08;1729440;82;21014;-61
2021/06/11 01:00:16;;;;;;;8.03;7.20;;;;;;;17.06;100.00;99646.33;1728506;82;21552;-69
2021/06/11 01:02:43;;;;;;;7.40;6.17;;;;;;;17.08;100.00;99650.82;1730366;81;21078;-69
2021/06/11 01:05:11;;;;;;;7.47;5.97;;;;;;;17.10;100.00;99657.45;1724745;82;21197;-71
2021/06/11 01:07:39;;;;;;;7.53;6.73;;;;;;;17.10;100.00;99657.98;1726208;81;21006;-73
2021/06/11 01:10:07;;;;;;;7.87;6.97;;;;;;;17.11;100.00;99660.88;1752371;80;20982;-71
2021/06/11 01:12:33;;;;;;;6.87;6.17;;;;;;;17.09;100.00;99665.09;1760406;80;21171;-72
2021/06/11 01:15:02;;;;;;;9.33;6.50;;;;;;;17.09;100.00;99661.13;1723557;82;21184;-71
2021/06/11 01:17:30;;;;;;;9.10;6.60;;;;;;;17.08;100.00;99664.78;1731136;81;21145;-64
2021/06/11 01:19:57;;;;;;;8.97;7.53;;;;;;;17.08;100.00;99667.41;1707701;81;20919;-70
2021/06/11 01:22:32;;;;;;;9.27;7.27;;;;;;;17.06;100.00;99664.24;1748561;80;21039;-70
2021/06/11 01:25:18;;;;;;;9.67;7.63;;;;;;;16.99;100.00;99664.92;1723539;82;20972;-71
2021/06/11 01:27:46;;;;;;;9.47;7.90;;;;;;;16.97;100.00;99660.39;1721326;81;21345;-62
2021/06/11 01:30:21;;;;;;;9.67;7.43;;;;;;;16.95;100.00;99659.85;1731992;80;21187;-69
2021/06/11 01:32:48;;;;;;;9.33;8.43;;;;;;;16.90;100.00;99658.47;1747225;80;21481;-69
2021/06/11 01:35:21;;;;;;;12.20;8.47;;;;;;;16.89;100.00;99659.48;1746416;80;21109;-66
2021/06/11 01:37:52;;;;;;;10.43;8.00;;;;;;;16.89;100.00;99659.48;1748400;80;22384;-71
2021/06/11 01:40:19;;;;;;;9.33;8.13;;;;;;;16.85;100.00;99662.31;1760440;80;21448;-69
2021/06/11 01:42:47;;;;;;;10.63;7.67;;;;;;;16.80;100.00;99663.03;1723781;82;21155;-70
2021/06/11 01:45:14;;;;;;;12.17;9.27;;;;;;;16.77;100.00;99659.55;1731047;81;20944;-68
2021/06/11 01:47:49;;;;;;;12.53;9.80;;;;;;;16.77;100.00;99674.03;1730795;81;21097;-68
2021/06/11 01:50:20;;;;;;;11.60;9.77;;;;;;;16.71;100.00;99666.55;1757209;80;21974;-70
2021/06/11 01:52:47;;;;;;;13.47;9.70;;;;;;;16.72;100.00;99668.14;1748769;80;20872;-66
2021/06/11 01:55:14;;;;;;;10.00;8.77;;;;;;;16.72;100.00;99670.77;1722730;82;22559;-70
2021/06/11 01:57:42;;;;;;;10.20;8.93;;;;;;;16.71;100.00;99672.34;1693825;83;20983;-61
2021/06/11 02:00:13;;;;;;;11.13;10.00;;;;;;;16.67;100.00;99674.64;1706845;82;20982;-69
2021/06/11 02:02:39;;;;;;;12.13;9.20;;;;;;;16.69;100.00;99674.39;1731307;81;21082;-70
2021/06/11 02:05:08;;;;;;;11.10;9.43;;;;;;;16.63;100.00;99687.17;1736919;82;21525;-70
2021/06/11 02:07:35;;;;;;;12.23;9.70;;;;;;;16.74;100.00;99681.91;1754905;80;21894;-73
2021/06/11 02:10:06;;;;;;;12.70;11.40;;;;;;;16.71;100.00;99682.86;1748540;80;21001;-71
2021/06/11 02:12:33;;;;;;;12.27;10.97;;;;;;;16.69;100.00;99689.66;1756487;80;21079;-65
2021/06/11 02:15:01;;;;;;;12.90;11.07;;;;;;;16.67;100.00;99687.80;1758647;80;20967;-70
2021/06/11 02:17:29;;;;;;;13.37;11.43;;;;;;;16.69;100.00;99687.55;1729071;82;20885;-63
2021/06/11 02:19:55;;;;;;;13.77;10.60;;;;;;;16.69;100.00;99686.23;1728918;82;21221;-67
2021/06/11 02:22:21;;;;;;;13.60;11.90;;;;;;;16.87;100.00;99680.79;1718680;82;21006;-70
2021/06/11 02:24:48;;;;;;;14.13;12.67;;;;;;;17.02;100.00;99679.72;1728771;82;20927;-69
2021/06/11 02:27:15;;;;;;;15.47;12.13;;;;;;;17.06;100.00;99682.67;1729419;82;21060;-69
2021/06/11 02:29:41;;;;;;;14.47;12.17;;;;;;;17.37;100.00;99684.45;1700241;82;21536;-70
2021/06/11 02:32:09;;;;;;;13.53;11.60;;;;;;;17.41;100.00;99677.66;1733061;81;21161;-73
2021/06/11 02:34:35;;;;;;;15.00;12.07;;;;;;;17.34;100.00;99677.81;1727349;82;20984;-70
2021/06/11 02:37:04;;;;;;;18.83;12.43;;;;;;;17.45;100.00;99677.45;1739781;82;21066;-72
2021/06/11 02:39:31;;;;;;;20.83;13.73;;;;;;;17.54;100.00;99675.19;1739247;82;21067;-65
2021/06/11 02:42:03;;;;;;;15.27;13.33;;;;;;;17.66;100.00;99679.33;1739733;82;21073;-69
2021/06/11 02:44:32;;;;;;;17.43;12.93;;;;;;;17.81;100.00;99683.25;1755228;80;21152;-63
2021/06/11 02:47:06;;;;;;;12.93;11.47;;;;;;;17.94;100.00;99677.07;1758464;80;21007;-72
2021/06/11 02:49:37;;;;;;;16.43;13.17;;;;;;;18.04;100.00;99686.17;1756232;80;21058;-64
2021/06/11 02:52:07;;;;;;;14.25;12.75;;;;;;;18.20;100.00;99680.80;1743880;80;21105;-70
2021/06/11 02:54:37;;;;;;;13.07;11.30;;;;;;;18.46;100.00;99677.12;1728615;82;20997;-65
2021/06/11 02:57:24;;;;;;;13.80;11.33;;;;;;;18.71;100.00;99676.08;1729544;82;21559;-73
2021/06/11 02:59:54;;;;;;;13.93;11.37;;;;;;;19.10;100.00;99671.11;1722315;81;21239;-72
2021/06/11 03:02:26;;;;;;;13.28;11.70;;;;;;;19.55;100.00;99665.31;1731478;80;20984;-71
2021/06/11 03:04:52;;;;;;;12.58;10.70;;;;;;;20.17;100.00;99659.23;1726486;82;21053;-69
2021/06/11 03:07:24;;;;;;;14.90;10.80;;;;;;;21.00;100.00;99654.32;1726993;82;21611;-69
2021/06/11 03:09:48;;;;;;;14.60;11.10;;;;;;;21.85;100.00;99646.96;1744546;81;21074;-71
2021/06/11 03:12:15;;;;;;;12.27;10.37;;;;;;;22.88;100.00;99635.98;1747733;82;20928;-74
2021/06/11 03:14:44;;;;;;;12.17;10.30;;;;;;;23.54;100.00;99623.89;1714955;81;21139;-72
2021/06/11 03:17:10;;;;;;;11.53;10.07;;;;;;;23.79;100.00;99618.84;1745869;81;21061;-63
2021/06/11 03:19:39;;;;;;;15.83;11.47;;;;;;;24.50;100.00;99624.48;1744857;81;21077;-70
2021/06/11 03:22:14;;;;;;;12.13;10.77;;;;;;;24.90;100.00;99614.23;1731514;81;21181;-66
2021/06/11 03:24:51;;;;;;;11.77;10.57;;;;;;;25.09;100.00;99612.83;1748894;81;21611;-70
2021/06/11 03:27:24;;;;;;;13.40;12.00;;;;;;;25.28;100.00;99616.78;1749123;81;20983;-65
2021/06/11 03:30:10;;;;;;;11.87;10.57;;;;;;;25.36;100.00;99619.30;1748741;81;21121;-71
2021/06/11 03:33:00;;;;;;;10.80;9.68;;;;;;;25.10;100.00;99622.98;1746157;81;21498;-72
2021/06/11 03:35:43;;;;;;;10.23;9.23;;;;;;;25.46;100.00;99615.89;1742905;81;21116;-71
2021/06/11 03:38:15;;;;;;;12.18;9.68;;;;;;;26.34;100.00;99615.62;1727404;82;20987;-63
2021/06/11 03:40:42;;;;;;;11.03;9.53;;;;;;;27.28;100.00;99621.86;1717217;82;21610;-72
2021/06/11 03:43:09;;;;;;;10.45;9.10;;;;;;;27.99;100.00;99623.03;1726832;83;21002;-63
2021/06/11 03:45:36;;;;;;;10.10;9.05;;;;;;;28.51;100.00;99624.39;1727133;82;21110;-76
2021/06/11 03:48:05;;;;;;;10.45;9.35;;;;;;;29.16;100.00;99623.05;1702458;83;22289;-65
2021/06/11 03:50:31;;;;;;;10.72;9.03;;;;;;;29.81;100.00;99618.55;1701083;83;21141;-76
2021/06/11 03:53:00;;;;;;;9.78;8.78;;;;;;;30.46;100.00;99622.23;1724941;82;20995;-64
2021/06/11 03:55:30;;;;;;;8.90;8.00;;;;;;;30.85;100.00;99623.58;1725514;82;21033;-74
2021/06/11 03:58:02;;;;;;;7.50;6.60;;;;;;;31.39;100.00;99629.35;1726504;82;21049;-66
2021/06/11 04:00:28;;;;;;;9.38;6.95;;;;;;;31.74;100.00;99622.90;1728081;82;21094;-77
2021/06/11 04:02:55;;;;;;;7.65;6.50;;;;;;;31.96;100.00;99620.30;1725732;81;21011;-73
2021/06/11 04:05:21;;;;;;;7.80;6.72;;;;;;;32.05;100.00;99618.80;1747525;80;22209;-75
2021/06/11 04:07:56;;;;;;;9.90;7.35;;;;;;;31.92;100.00;99618.84;1774239;80;21411;-65
2021/06/11 04:10:39;;;;;;;8.68;7.22;;;;;;;31.94;100.00;99625.26;1769183;80;21648;-75
2021/06/11 04:13:20;;;;;;;7.30;6.50;;;;;;;31.71;100.00;99618.21;1737413;80;21134;-75
2021/06/11 04:15:49;;;;;;;8.18;5.87;;;;;;;31.36;100.00;99625.41;1766167;79;21054;-78
2021/06/11 04:18:19;;;;;;;7.15;6.35;;;;;;;31.61;100.00;99621.36;1776657;79;21454;-78
2021/06/11 04:20:45;;;;;;;6.75;5.90;;;;;;;31.72;100.00;99621.91;1769019;79;20960;-65
2021/06/11 04:23:12;;;;;;;7.67;5.90;;;;;;;31.43;100.00;99623.51;1774458;79;20952;-67
2021/06/11 04:25:38;;;;;;;6.90;5.55;;;;;;;31.78;100.00;99620.31;1780120;79;21103;-76
2021/06/11 04:28:05;;;;;;;6.85;5.62;;;;;;;32.38;100.00;99619.34;1777597;79;21506;-76
2021/06/11 04:30:32;;;;;;;8.95;5.55;;;;;;;32.59;100.00;99621.86;1746453;80;20998;-79
2021/06/11 04:32:58;;;;;;;6.97;5.92;;;;;;;32.90;99.63;99621.09;1773096;80;21086;-76
2021/06/11 04:35:26;;;;;;;6.28;4.97;;;;;;;33.22;98.78;99632.47;1772133;79;20990;-75
2021/06/11 04:37:56;;;;;;;6.25;5.40;;;;;;;33.43;96.59;99634.32;1775642;80;21161;-72
2021/06/11 04:40:23;;;;;;;7.95;6.35;;;;;;;33.68;95.78;99631.41;1750349;79;21445;-77
2021/06/11 04:42:50;;;;;;;7.00;5.97;;;;;;;33.60;89.99;99639.38;1775114;80;21017;-72
2021/06/11 04:45:16;;;;;;;7.35;6.10;;;;;;;32.77;95.39;99644.45;1776937;79;21030;-65
2021/06/11 04:47:43;;;;;;;5.58;4.67;;;;;;;32.20;100.00;99645.03;1733522;82;21047;-77
2021/06/11 04:50:11;;;;;;;7.85;4.08;;;;;;;32.12;100.00;99646.74;1779640;79;21146;-77
2021/06/11 04:52:37;;;;;;;5.70;5.10;;;;;;;32.57;100.00;99639.52;1770101;80;20958;-77
2021/06/11 04:55:06;;;;;;;5.87;4.75;;;;;;;32.94;98.43;99640.11;1777768;79;21037;-77
2021/06/11 04:57:32;;;;;;;6.05;4.50;;;;;;;33.29;96.81;99645.58;1777351;79;21082;-78
2021/06/11 04:59:59;;;;;;;5.53;4.58;;;;;;;33.72;93.27;99644.42;1750470;80;21051;-77
2021/06/11 05:02:25;;;;;;;5.30;4.80;;;;;;;34.09;91.78;99648.90;1750577;80;21101;-77
2021/06/11 05:04:52;;;;;;;5.50;4.80;;;;;;;34.52;87.36;99655.96;1762047;80;21482;-78
2021/06/11 05:07:18;;;;;;;6.80;4.72;;;;;;;34.26;81.68;99657.17;1760586;80;21009;-65
2021/06/11 05:09:45;;;;;;;6.30;4.75;;;;;;;33.34;88.19;99659.41;1759768;80;21135;-81
2021/06/11 05:12:13;;;;;;;5.58;4.80;;;;;;;32.50;95.72;99665.73;1762418;80;21000;-75
2021/06/11 05:14:39;;;;;;;6.25;4.92;;;;;;;32.07;98.62;99669.91;1763204;80;21735;-76
2021/06/11 05:17:06;;;;;;;7.33;5.42;;;;;;;31.54;100.00;99666.95;1762689;81;21014;-75
2021/06/11 05:19:33;;;;;;;6.33;5.20;;;;;;;30.95;100.00;99675.63;1760585;80;21630;-73
2021/06/11 05:21:59;;;;;;;6.22;5.17;;;;;;;30.46;100.00;99676.02;1735773;81;21623;-74
2021/06/11 05:24:26;;;;;;;6.20;5.53;;;;;;;30.58;100.00;99674.70;1785127;79;21014;-75
2021/06/11 05:26:53;;;;;;;5.15;4.50;;;;;;;30.95;100.00;99674.28;1784083;80;22356;-77
2021/06/11 05:29:19;;;;;;;5.08;4.55;;;;;;;31.45;100.00;99673.80;1785745;79;21449;-77
2021/06/11 05:31:46;;;;;;;6.55;5.50;;;;;;;31.86;100.00;99676.83;1784122;79;21015;-67
2021/06/11 05:34:12;;;;;;;5.55;4.92;;;;;;;31.31;100.00;99677.38;1781103;79;22413;-79
2021/06/11 05:36:39;;;;;;;6.87;6.00;;;;;;;30.71;100.00;99676.30;1783070;79;20960;-77
2021/06/11 05:39:06;;;;;;;6.45;5.12;;;;;;;30.16;100.00;99677.44;1779053;80;21144;-76
2021/06/11 05:41:32;;;;;;;6.42;5.83;;;;;;;30.12;100.00;99680.52;1784280;80;21021;-64
2021/06/11 05:43:59;;;;;;;8.20;6.95;;;;;;;30.48;100.00;99686.65;1780477;80;20937;-65
2021/06/11 05:46:26;;;;;;;6.03;5.42;;;;;;;31.13;100.00;99688.87;1781461;79;20935;-73
2021/06/11 05:48:54;;;;;;;6.97;5.75;;;;;;;31.90;100.00;99685.80;1782691;80;20944;-79
2021/06/11 05:51:20;;;;;;;6.92;5.10;;;;;;;32.49;100.00;99686.32;1780713;79;22069;-78
2021/06/11 05:53:47;;;;;;;5.45;4.90;;;;;;;32.99;97.05;99675.51;1783164;79;20887;-76
2021/06/11 05:56:14;;;;;;;5.33;4.10;;;;;;;33.55;91.98;99676.69;1782675;80;20955;-77
2021/06/11 05:58:40;;;;;;;5.30;4.62;;;;;;;33.99;86.31;99669.20;1784572;80;21065;-77
2021/06/11 06:01:06;;;;;;;5.72;4.58;;;;;;;34.39;83.27;99672.10;1779883;79;20987;-80
2021/06/11 06:03:33;;;;;;;4.35;3.70;;;;;;;34.48;82.27;99679.44;1733667;80;21148;-79
2021/06/11 06:06:00;;;;;;;7.75;4.62;;;;;;;34.74;80.02;99676.63;1721852;82;21485;-66
2021/06/11 06:08:27;;;;;;;6.20;4.60;;;;;;;34.90;76.18;99669.20;1722798;82;20993;-75
2021/06/11 06:10:54;;;;;;;4.40;3.90;;;;;;;35.01;72.51;99672.90;1724519;82;20999;-76
2021/06/11 06:13:21;;;;;;;4.87;3.98;;;;;;;35.12;73.78;99677.69;1725420;83;21079;-78
2021/06/11 06:15:48;;;;;;;5.70;4.00;;;;;;;35.53;70.38;99682.81;1713983;83;21158;-76
2021/06/11 06:18:14;;;;;;;5.35;4.30;;;;;;;35.70;65.77;99674.73;1723356;83;21581;-75
2021/06/11 06:20:44;;;;;;;5.00;4.00;;;;;;;35.70;64.38;99674.73;1742951;81;21081;-79
2021/06/11 06:23:11;;;;;;;5.67;4.90;;;;;;;35.23;66.58;99675.94;1741142;82;21256;-78
2021/06/11 06:25:38;;;;;;;5.03;4.22;;;;;;;34.47;71.43;99673.80;1743678;82;20998;-76
2021/06/11 06:28:05;;;;;;;4.78;4.05;;;;;;;33.72;80.37;99680.37;1741281;82;22180;-65
2021/06/11 06:30:32;;;;;;;4.95;4.20;;;;;;;33.53;83.44;99682.45;1737848;82;20908;-78
2021/06/11 06:32:59;;;;;;;4.47;3.60;;;;;;;33.35;87.90;99679.88;1734620;82;21102;-78
2021/06/11 06:35:26;;;;;;;5.12;3.98;;;;;;;33.47;90.54;99674.39;1737502;82;20916;-78
2021/06/11 06:37:52;;;;;;;4.37;3.80;;;;;;;33.80;86.97;99678.03;1740928;81;21010;-77
2021/06/11 06:40:19;;;;;;;5.35;4.37;;;;;;;33.78;88.25;99682.22;1729172;80;21785;-64
2021/06/11 06:42:45;;;;;;;4.65;4.20;;;;;;;33.59;90.76;99675.63;1740703;82;21061;-78
2021/06/11 06:45:14;;;;;;;5.25;4.72;;;;;;;33.90;93.81;99678.03;1739492;81;21037;-76
2021/06/11 06:47:43;;;;;;;6.50;5.90;;;;;;;34.48;83.03;99683.50;1744001;82;21059;-75
2021/06/11 06:50:13;;;;;;;6.03;5.42;;;;;;;34.60;78.46;99680.66;1742886;82;21056;-68
2021/06/11 06:52:40;;;;;;;5.67;4.30;;;;;;;34.23;79.71;99684.93;1738258;82;21493;-74
2021/06/11 06:55:08;;;;;;;3.80;3.37;;;;;;;33.72;82.70;99687.67;1743794;80;21077;-74
2021/06/11 06:57:36;;;;;;;5.00;3.72;;;;;;;33.30;87.97;99686.88;1742312;82;21007;-76
2021/06/11 07:00:05;;;;;;;5.50;4.85;;;;;;;32.98;89.01;99688.80;1741543;82;21069;-73
2021/06/11 07:02:32;;;;;;;5.33;4.67;;;;;;;32.92;92.90;99682.83;1743621;81;21063;-74
2021/06/11 07:04:58;;;;;;;6.42;4.75;;;;;;;33.34;90.34;99682.36;1769972;79;21407;-78
2021/06/11 07:07:25;;;;;;;5.37;4.53;;;;;;;33.47;89.32;99689.25;1765339;79;21449;-76
2021/06/11 07:09:52;;;;;;;7.20;4.72;;;;;;;33.42;87.68;99690.28;1767512;80;20935;-77
2021/06/11 07:12:18;;;;;;;6.17;5.03;;;;;;;33.14;91.59;99689.58;1771088;79;20857;-73
2021/06/11 07:14:45;;;;;;;6.95;4.03;;;;;;;33.14;93.25;99686.31;1764111;80;20932;-79
2021/06/11 07:17:12;;;;;;;6.10;4.35;;;;;;;33.51;92.87;99688.77;1766784;80;21139;-73
2021/06/11 07:19:40;;;;;;;5.75;4.25;;;;;;;34.00;89.44;99688.91;1765864;81;20939;-77
2021/06/11 07:22:07;;;;;;;7.75;3.87;;;;;;;34.47;82.51;99690.03;1760406;79;20960;-75
2021/06/11 07:24:36;;;;;;;5.92;4.00;;;;;;;34.70;81.94;99687.97;1764359;81;21479;-74
2021/06/11 07:27:05;;;;;;;6.40;4.25;;;;;;;34.59;78.24;99692.64;1768609;79;21331;-76
2021/06/11 07:29:33;;;;;;;4.80;4.20;;;;;;;34.54;79.37;99688.84;1772542;79;21124;-75
2021/06/11 07:31:59;;;;;;;5.75;4.90;;;;;;;34.60;81.55;99688.78;1769282;79;20923;-75
2021/06/11 07:34:26;;;;;;;6.22;4.45;;;;;;;34.63;79.02;99688.64;1763475;80;20889;-64
2021/06/11 07:36:52;;;;;;;4.90;3.72;;;;;;;34.41;81.59;99680.66;1767055;79;21081;-77
2021/06/11 07:39:19;;;;;;;4.60;3.10;;;;;;;34.65;83.33;99689.05;1770131;79;20951;-76
2021/06/11 07:41:46;;;;;;;3.52;2.95;;;;;;;34.97;79.40;99682.86;1770226;79;21271;-77
2021/06/11 07:44:13;;;;;;;3.95;3.17;;;;;;;35.09;71.81;99677.28;1767380;80;20951;-67
2021/06/11 07:46:40;;;;;;;5.80;3.52;;;;;;;35.44;70.52;99680.91;1769360;79;20977;-78
2021/06/11 07:49:07;;;;;;;3.72;3.15;;;;;;;35.29;75.07;99679.91;1768420;79;21978;-74
2021/06/11 07:51:34;;;;;;;4.83;3.02;;;;;;;35.15;77.90;99676.39;1768410;81;21473;-78
2021/06/11 07:54:01;;;;;;;4.03;2.67;;;;;;;35.32;71.14;99677.84;1768001;79;21253;-72
2021/06/11 07:56:27;;;;;;;3.40;2.70;;;;;;;35.32;68.25;99676.48;1765185;81;21074;-64
2021/06/11 07:58:54;;;;;;;3.83;3.02;;;;;;;35.38;68.90;99674.23;1764160;79;22987;-78
2021/06/11 08:01:20;;;;;;;4.95;3.08;;;;;;;35.46;71.38;99674.00;1769055;79;21038;-77
2021/06/11 08:03:47;;;;;;;3.90;3.10;;;;;;;35.51;78.39;99668.28;1776754;79;21085;-75
2021/06/11 08:06:13;;;;;;;4.97;3.30;;;;;;;35.70;73.55;99669.31;1729092;81;22144;-76
2021/06/11 08:08:41;;;;;;;5.22;3.00;;;;;;;36.01;68.16;99670.91;1769987;79;21493;-76
2021/06/11 08:11:08;;;;;;;4.50;3.00;;;;;;;36.34;64.58;99672.08;1768674;80;21452;-74
2021/06/11 08:13:35;;;;;;;3.92;2.67;;;;;;;36.50;57.26;99672.08;1760557;79;20875;-77
2021/06/11 08:16:01;;;;;;;3.42;2.50;;;;;;;36.75;56.14;99665.55;1772041;79;21430;-77
2021/06/11 08:18:28;;;;;;;3.22;2.47;;;;;;;36.91;54.53;99670.72;1766752;80;21105;-64
2021/06/11 08:20:54;;;;;;;3.27;2.20;;;;;;;36.52;53.95;99668.98;1760949;80;20942;-77
2021/06/11 08:23:20;;;;;;;2.83;2.20;;;;;;;36.38;54.48;99677.74;1770929;79;20983;-78
2021/06/11 08:25:47;;;;;;;3.40;2.17;;;;;;;36.62;53.95;99683.83;1753566;80;21079;-75
2021/06/11 08:28:13;;;;;;;3.20;2.10;;;;;;;36.52;50.12;99683.36;1758647;80;20899;-74
2021/06/11 08:30:40;;;;;;;3.10;2.05;;;;;;;36.75;56.81;99676.98;1759300;80;21073;-67
2021/06/11 08:33:07;;;;;;;2.85;1.80;;;;;;;36.77;48.10;99671.37;1775492;79;21295;-76
2021/06/11 08:35:34;;;;;;;4.67;1.82;;;;;;;36.65;47.81;99672.23;1748629;80;21918;-78
2021/06/11 08:38:00;;;;;;;2.27;1.60;;;;;;;36.58;47.51;99672.16;1776759;79;20995;-77
2021/06/11 08:40:27;;;;;;;3.80;2.08;;;;;;;36.59;45.95;99664.98;1751005;80;21098;-78
2021/06/11 08:42:55;;;;;;;4.72;2.92;;;;;;;36.57;46.71;99663.81;1775705;80;21081;-68
2021/06/11 08:45:22;;;;;;;4.00;2.77;;;;;;;36.36;48.99;99666.46;1761840;80;21447;-78
2021/06/11 08:47:52;;;;;;;4.85;2.55;;;;;;;36.02;59.97;99664.33;1776494;79;20943;-77
2021/06/11 08:50:27;;;;;;;6.25;3.67;;;;;;;35.46;52.91;99656.38;1760329;80;21005;-76
2021/06/11 08:52:58;;;;;;;4.37;3.27;;;;;;;35.16;64.70;99660.38;1764557;80;20935;-63
2021/06/11 08:55:26;;;;;;;4.50;3.02;;;;;;;35.09;63.18;99658.33;1761895;80;21874;-74
2021/06/11 08:57:52;;;;;;;4.55;3.12;;;;;;;34.78;67.49;99657.20;1754174;80;21454;-72
2021/06/11 09:00:20;;;;;;;6.10;3.90;;;;;;;34.13;68.46;99660.03;1761534;80;21056;-78
2021/06/11 09:03:11;;;;;;;4.80;3.50;;;;;;;33.87;75.52;99653.86;1775991;79;21078;-71
2021/06/11 09:05:40;;;;;;;4.67;3.37;;;;;;;34.10;74.80;99659.95;1779181;79;21034;-81
2021/06/11 09:08:23;;;;;;;5.35;3.47;;;;;;;34.45;67.11;99657.16;1778055;79;21131;-76
2021/06/11 09:10:52;;;;;;;4.08;2.90;;;;;;;34.75;66.58;99653.28;1773851;80;21390;-75
2021/06/11 09:13:26;;;;;;;5.50;3.40;;;;;;;34.36;70.63;99653.33;1770783;80;21066;-74
2021/06/11 09:16:09;;;;;;;6.67;3.12;;;;;;;33.44;74.42;99658.84;1755020;79;21089;-66
2021/06/11 09:18:56;;;;;;;2.98;2.45;;;;;;;32.78;81.90;99656.84;1758915;79;21101;-75
2021/06/11 09:21:47;;;;;;;3.62;2.37;;;;;;;32.72;85.42;99651.46;1762561;79;21144;-74
2021/06/11 09:24:25;;;;;;;3.42;2.55;;;;;;;33.05;82.09;99646.55;1761380;79;22302;-77
2021/06/11 09:27:07;;;;;;;3.60;2.77;;;;;;;33.54;82.02;99644.83;1758538;80;21148;-70
2021/06/11 09:29:49;;;;;;;2.98;2.45;;;;;;;33.45;82.36;99652.30;1762665;79;21101;-76
2021/06/11 09:32:26;;;;;;;4.55;3.00;;;;;;;33.70;80.90;99639.95;1761085;79;21437;-79
2021/06/11 09:35:03;;;;;;;3.45;2.45;;;;;;;33.92;82.55;99630.38;1760471;80;21801;-65
2021/06/11 09:37:34;;;;;;;4.03;3.00;;;;;;;33.85;79.14;99631.78;1763497;79;20971;-80
2021/06/11 09:40:11;;;;;;;2.67;2.17;;;;;;;34.04;78.59;99631.62;1760662;80;24669;-72
2021/06/11 09:42:44;;;;;;;2.92;2.35;;;;;;;34.10;72.94;99630.20;1761747;80;20982;-76
2021/06/11 09:45:13;;;;;;;3.15;2.30;;;;;;;34.08;76.48;99618.95;1762540;81;21105;-78
2021/06/11 09:47:45;;;;;;;3.87;2.62;;;;;;;34.33;77.19;99623.49;1765138;79;21140;-79
2021/06/11 09:50:19;;;;;;;2.75;2.33;;;;;;;34.29;72.01;99629.41;1778331;79;20899;-65
2021/06/11 09:55:50;;;;;;;2.80;2.40;;;;;;;33.36;73.47;99621.42;1732741;81;21136;-71
2021/06/11 09:58:31;;;;;;;3.98;2.12;;;;;;;33.05;79.19;99620.13;1783861;79;22524;-72
2021/06/11 10:01:03;;;;;;;4.83;2.30;;;;;;;33.09;81.39;99612.89;1782068;79;21783;-70
2021/06/11 10:03:33;;;;;;;4.12;2.35;;;;;;;33.45;77.22;99607.72;1774319;79;20933;-69
2021/06/11 10:06:04;;;;;;;2.60;2.20;;;;;;;33.73;76.18;99608.17;1760305;79;22808;-70
2021/06/11 10:08:32;;;;;;;2.80;2.20;;;;;;;33.94;67.45;99605.88;1778464;79;21066;-70
2021/06/11 10:11:02;;;;;;;3.27;2.75;;;;;;;33.85;67.88;99609.38;1759257;79;21125;-73
2021/06/11 10:13:29;;;;;;;;;;;;;;;33.61;71.77;99603.67;1765925;79;21130;-74
2021/06/11 10:15:59;;;;;;;3.55;2.25;;;;;;;33.56;74.05;99604.71;1763377;79;20194;-70
2021/06/11 10:18:25;;;;;;;3.10;2.37;;;;;;;33.56;74.22;99602.01;1776387;79;21069;-74
2021/06/11 10:20:52;;;;;;;3.40;2.45;;;;;;;33.41;73.00;99609.02;1776540;79;20944;-73
2021/06/11 10:23:23;;;;;;;4.28;2.95;;;;;;;33.09;75.42;99603.44;1747853;81;21026;-72
2021/06/11 10:25:56;;;;;;;3.87;3.35;;;;;;;32.26;86.20;99607.83;1779477;79;21132;-71
2021/06/11 10:28:32;;;;;;;3.50;2.90;;;;;;;31.56;88.85;99615.66;1762177;81;20983;-76
2021/06/11 10:31:08;;;;;;;3.25;2.50;;;;;;;31.08;89.46;99611.04;1778780;80;21382;-72
2021/06/11 10:33:49;;;;;;;4.12;2.90;;;;;;;30.74;92.26;99615.14;1756692;79;20989;-72
2021/06/11 10:36:32;;;;;;;3.42;2.80;;;;;;;30.51;93.20;99614.72;1773549;79;21270;-73
2021/06/11 10:39:14;;;;;;;5.65;3.02;;;;;;;30.36;99.12;99622.63;1779293;80;21102;-67
2021/06/11 10:42:07;;;;;;;4.15;2.98;;;;;;;30.04;100.00;99612.81;1761573;81;21014;-73
2021/06/11 10:44:50;;;;;;;4.15;2.67;;;;;;;29.81;100.00;99621.23;1778949;79;21549;-74
2021/06/11 10:47:22;;;;;;;3.30;2.90;;;;;;;29.54;100.00;99619.77;1773845;79;20943;-75
2021/06/11 10:50:01;;;;;;;5.20;3.00;;;;;;;29.30;100.00;99617.70;1766338;79;21004;-76
2021/06/11 10:52:49;;;;;;;4.40;3.33;;;;;;;29.07;100.00;99621.75;1751315;79;21173;-75
2021/06/11 10:55:23;;;;;;;6.35;2.95;;;;;;;28.86;100.00;99621.63;1771401;80;21023;-75
2021/06/11 10:57:59;;;;;;;4.20;3.20;;;;;;;28.55;100.00;99621.86;1762425;79;21474;-71
2021/06/11 11:00:39;;;;;;;5.47;3.20;;;;;;;28.22;100.00;99624.22;1742174;81;21031;-73
2021/06/11 11:03:07;;;;;;;6.85;4.87;;;;;;;27.84;100.00;99637.70;1775327;79;20964;-74
2021/06/11 11:05:36;;;;;;;6.78;5.85;;;;;;;27.50;100.00;99641.59;1763970;80;21122;-70
2021/06/11 11:08:08;;;;;;;11.30;10.20;;;;;;;27.12;100.00;99640.73;1773281;80;21063;-73
2021/06/11 11:10:44;;;;;;;8.37;7.47;;;;;;;26.67;100.00;99635.45;1772060;80;21549;-72
2021/06/11 11:13:19;;;;;;;5.23;3.77;;;;;;;26.30;100.00;99628.01;1764774;79;20998;-71
2021/06/11 11:15:49;;;;;;;4.57;2.60;;;;;;;25.93;100.00;99618.42;1766510;79;21030;-74
2021/06/11 11:18:24;;;;;;;5.57;3.37;;;;;;;25.55;100.00;99621.86;1777711;79;21117;-69
2021/06/11 11:20:52;;;;;;;3.77;3.17;;;;;;;25.16;100.00;99609.27;1752456;80;20986;-72
2021/06/11 11:23:24;;;;;;;5.40;3.40;;;;;;;24.72;100.00;99610.54;1770268;79;21608;-71
2021/06/11 11:25:51;;;;;;;4.20;3.00;;;;;;;24.47;100.00;99613.09;1789075;79;20979;-72
2021/06/11 11:28:17;;;;;;;4.53;3.80;;;;;;;24.23;100.00;99607.03;1793717;79;20961;-71
2021/06/11 11:30:46;;;;;;;6.63;3.97;;;;;;;24.03;100.00;99615.56;1792501;79;21186;-72
2021/06/11 11:33:14;;;;;;;5.47;3.63;;;;;;;23.87;100.00;99610.75;1796681;79;20941;-72
2021/06/11 11:35:44;;;;;;;7.80;4.00;;;;;;;23.77;100.00;99611.12;1794300;79;21071;-71
2021/06/11 11:38:12;;;;;;;5.10;4.00;;;;;;;23.68;100.00;99610.19;1798651;79;20979;-72
2021/06/11 11:40:44;;;;;;;5.33;3.40;;;;;;;23.59;100.00;99612.39;1795793;79;21392;-73